Time;durP1;ratioP1;P1;durP2;ratioP2;P2;SDS_P1;SDS_P2;PMS_P1;PMS_P2;Temp;Humidity;BMP_temperature;BMP_pressure;BME280_temperature;BME280_humidity;BME280_pressure;Samples;Min_cycle;Max_cycle;Signal;HPM_P1;HPM_P2
2022/06/22 00:01:15;;;;;;;;;;;13.80;99.90;;;;;;6194540;23;20020;-82
2022/06/22 00:03:42;;;;;;;6.32;2.83;;;13.60;99.90;;;;;;6219111;23;19958;-82
2022/06/22 00:06:50;;;;;;;3.20;2.90;;;13.60;99.90;;;;;;6218680;23;20016;-81
2022/06/22 00:09:35;;;;;;;3.42;2.63;;;13.60;99.90;;;;;;6219349;23;20453;-82
2022/06/22 00:12:01;;;;;;;3.50;2.55;;;13.50;99.90;;;;;;6218567;23;20024;-82
2022/06/22 00:14:41;;;;;;;5.38;2.42;;;13.40;99.90;;;;;;6245790;23;20016;-82
2022/06/22 00:17:27;;;;;;;3.47;2.72;;;13.30;99.90;;;;;;6218506;23;20016;-82
2022/06/22 00:20:13;;;;;;;4.18;2.60;;;13.20;99.90;;;;;;6193358;23;20452;-82
2022/06/22 00:22:54;;;;;;;2.95;2.40;;;13.20;99.90;;;;;;6218712;23;20012;-81
2022/06/22 00:25:33;;;;;;;4.18;3.75;;;13.20;99.90;;;;;;6219036;23;20051;-81
2022/06/22 00:28:32;;;;;;;5.68;2.95;;;13.10;99.90;;;;;;6193367;23;20019;-81
2022/06/22 00:31:24;;;;;;;;;;;13.00;99.90;;;;;;6219007;23;20016;-82
2022/06/22 00:34:11;;;;;;;4.10;3.70;;;13.80;99.90;;;;;;6214792;23;20318;-82
2022/06/22 00:36:36;;;;;;;3.40;2.50;;;12.90;99.90;;;;;;6194063;23;20451;-81
2022/06/22 00:39:17;;;;;;;4.43;3.43;;;12.90;99.90;;;;;;6193267;23;20024;-82
2022/06/22 00:41:49;;;;;;;4.90;3.33;;;12.80;99.90;;;;;;6218875;23;20023;-81
2022/06/22 00:44:17;;;;;;;4.45;2.67;;;12.80;99.90;;;;;;6218678;23;20495;-81
2022/06/22 00:47:00;;;;;;;2.75;2.53;;;12.80;99.90;;;;;;6193653;23;20023;-82
2022/06/22 00:49:28;;;;;;;4.30;2.72;;;12.80;99.90;;;;;;6218713;23;20016;-81
2022/06/22 00:51:59;;;;;;;2.90;2.20;;;12.80;99.90;;;;;;6218185;23;20049;-82
2022/06/22 00:54:28;;;;;;;3.83;3.15;;;12.80;99.90;;;;;;6219121;23;20020;-81
2022/06/22 00:57:12;;;;;;;4.55;3.20;;;12.80;99.90;;;;;;6217840;23;20452;-82
2022/06/22 00:59:50;;;;;;;4.50;3.00;;;12.70;99.90;;;;;;6218887;23;20024;-81
2022/06/22 01:02:24;;;;;;;2.67;2.47;;;12.60;99.90;;;;;;6194172;23;20467;-82
2022/06/22 01:05:05;;;;;;;4.45;3.05;;;12.60;99.90;;;;;;6243157;23;20052;-82
2022/06/22 01:07:41;;;;;;;3.35;3.05;;;12.50;99.90;;;;;;6218884;23;20388;-81
2022/06/22 01:10:38;;;;;;;5.30;3.93;;;12.30;99.90;;;;;;6245000;23;20020;-82
2022/06/22 01:13:15;;;;;;;3.53;2.50;;;12.40;99.90;;;;;;6193159;23;20019;-82
2022/06/22 01:16:07;;;;;;;3.40;2.30;;;12.30;99.90;;;;;;6193708;23;20384;-82
2022/06/22 01:18:45;;;;;;;4.15;2.95;;;12.30;99.90;;;;;;6217126;23;20384;-81
2022/06/22 01:21:19;;;;;;;2.75;2.50;;;12.40;99.90;;;;;;6244970;23;20449;-81
2022/06/22 01:24:26;;;;;;;3.13;2.63;;;12.30;99.90;;;;;;6218735;23;20055;-82
2022/06/22 01:27:17;;;;;;;2.83;2.63;;;12.30;99.90;;;;;;6216967;23;20047;-89
2022/06/22 01:30:16;;;;;;;4.90;2.20;;;12.20;99.90;;;;;;6218223;23;20016;-81
2022/06/22 01:32:43;;;;;;;2.55;1.90;;;12.20;99.90;;;;;;6218663;23;20052;-82
2022/06/22 01:35:23;;;;;;;;;;;12.20;99.90;;;;;;6195543;23;20016;-82
2022/06/22 01:37:49;;;;;;;2.13;1.88;;;12.10;99.90;;;;;;6195165;23;19943;-81
2022/06/22 01:40:18;;;;;;;2.30;1.77;;;12.10;99.90;;;;;;6219978;23;20024;-82
2022/06/22 01:42:53;;;;;;;2.72;2.05;;;12.10;99.90;;;;;;6220315;23;20027;-81
2022/06/22 01:45:29;;;;;;;2.10;2.00;;;12.10;99.90;;;;;;6247581;23;20048;-82
2022/06/22 01:48:08;;;;;;;2.80;1.98;;;12.00;99.90;;;;;;6219933;23;20087;-85
2022/06/22 01:50:47;;;;;;;2.88;2.33;;;11.90;99.90;;;;;;6195486;23;20102;-82
2022/06/22 01:53:55;;;;;;;4.28;2.00;;;11.90;99.90;;;;;;6219928;23;20020;-81
2022/06/22 01:56:27;;;;;;;3.15;2.35;;;11.90;99.90;;;;;;6138755;23;20024;-81
2022/06/22 01:59:11;;;;;;;2.40;2.13;;;11.90;99.90;;;;;;6195299;23;20020;-81
2022/06/22 02:01:42;;;;;;;4.03;2.67;;;11.90;99.90;;;;;;6220389;23;20020;-82
2022/06/22 02:04:13;;;;;;;3.58;3.05;;;11.80;99.90;;;;;;6194581;23;20023;-82
2022/06/22 02:10:09;;;;;;;6.05;2.90;;;11.70;99.90;;;;;;6220324;23;20020;-81
2022/06/22 02:12:40;;;;;;;3.22;2.45;;;11.50;99.90;;;;;;6220316;23;20027;-82
2022/06/22 02:15:39;;;;;;;3.83;2.35;;;11.50;99.90;;;;;;6219880;23;20027;-82
2022/06/22 02:18:34;;;;;;;3.58;3.28;;;11.50;99.90;;;;;;6219624;23;20079;-82
2022/06/22 02:21:22;;;;;;;3.08;2.70;;;11.40;99.90;;;;;;6219661;23;20043;-82
2022/06/22 02:24:27;;;;;;;9.40;2.70;;;11.30;99.90;;;;;;6219312;23;20035;-82
2022/06/22 02:27:03;;;;;;;2.70;2.22;;;11.30;99.90;;;;;;6213467;23;20016;-81
2022/06/22 02:29:33;;;;;;;3.60;2.40;;;11.30;99.90;;;;;;6219588;23;20043;-82
2022/06/22 02:32:02;;;;;;;2.42;2.15;;;11.30;99.90;;;;;;6219910;23;20479;-81
2022/06/22 02:34:31;;;;;;;3.40;2.88;;;11.20;99.90;;;;;;6219549;23;20020;-82
2022/06/22 02:37:00;;;;;;;4.80;2.25;;;11.20;99.90;;;;;;6219892;23;20074;-82
2022/06/22 02:39:29;;;;;;;6.38;2.72;;;11.10;99.90;;;;;;6219998;23;20020;-82
2022/06/22 02:44:44;;;;;;;2.97;2.00;;;11.10;99.90;;;;;;6199192;23;20052;-81
2022/06/22 02:47:10;;;;;;;2.22;1.92;;;11.10;99.90;;;;;;6194378;23;20020;-81
2022/06/22 02:49:39;;;;;;;3.40;3.10;;;11.10;99.90;;;;;;6219826;23;20016;-81
2022/06/22 02:52:07;;;;;;;4.75;2.88;;;11.00;99.90;;;;;;6246162;23;20019;-82
2022/06/22 02:54:38;;;;;;;3.42;2.60;;;10.90;99.90;;;;;;6219424;23;20078;-81
2022/06/22 02:57:19;;;;;;;2.95;2.65;;;10.90;99.90;;;;;;6246277;23;20012;-82
2022/06/22 02:59:47;;;;;;;3.60;2.40;;;10.80;99.90;;;;;;6195170;23;20110;-82
2022/06/22 03:02:13;;;;;;;2.22;1.92;;;10.80;99.90;;;;;;6246058;23;20020;-81
2022/06/22 03:04:44;;;;;;;2.97;2.40;;;10.70;99.90;;;;;;6169422;23;20021;-81
2022/06/22 03:07:10;;;;;;;2.67;2.05;;;10.70;99.90;;;;;;6219282;23;20019;-82
2022/06/22 03:09:37;;;;;;;3.70;1.80;;;10.70;99.90;;;;;;6194345;23;20019;-81
2022/06/22 03:12:04;;;;;;;2.40;1.92;;;10.70;99.90;;;;;;6219831;23;20066;-81
2022/06/22 03:14:30;;;;;;;;;;;11.70;99.90;;;;;;6195066;23;20099;-81
2022/06/22 03:17:06;;;;;;;3.00;1.88;;;10.80;99.90;;;;;;6219284;23;19947;-81
2022/06/22 03:20:00;;;;;;;2.03;1.87;;;10.80;99.90;;;;;;6219697;23;20023;-81
2022/06/22 03:22:32;;;;;;;1.92;1.73;;;10.80;99.90;;;;;;6194088;23;20247;-82
2022/06/22 03:25:19;;;;;;;2.10;1.30;;;10.70;99.90;;;;;;6219578;23;20019;-82
2022/06/22 03:27:50;;;;;;;1.80;1.70;;;10.70;99.90;;;;;;6219783;23;20453;-81
2022/06/22 03:30:23;;;;;;;3.58;1.77;;;10.70;99.90;;;;;;6218613;23;20028;-81
2022/06/22 03:32:56;;;;;;;2.40;2.17;;;10.70;99.90;;;;;;6219745;23;20077;-81
2022/06/22 03:35:29;;;;;;;3.20;2.47;;;10.70;99.90;;;;;;6193961;23;20020;-81
2022/06/22 03:38:04;;;;;;;3.85;2.25;;;10.80;99.90;;;;;;6219364;23;20016;-81
2022/06/22 03:41:02;;;;;;;4.75;3.38;;;10.80;99.90;;;;;;6218903;23;20016;-82
2022/06/22 03:43:52;;;;;;;3.28;2.25;;;10.80;99.90;;;;;;6218812;23;20296;-81
2022/06/22 03:46:52;;;;;;;2.30;2.00;;;10.70;99.90;;;;;;6218394;23;20016;-81
2022/06/22 03:49:29;;;;;;;3.05;2.65;;;10.60;99.90;;;;;;6116137;23;20024;-82
2022/06/22 03:52:20;;;;;;;3.15;2.83;;;10.60;99.90;;;;;;6194466;23;20029;-81
2022/06/22 03:55:15;;;;;;;2.80;2.50;;;10.50;99.90;;;;;;6119390;23;20073;-82
2022/06/22 03:57:44;;;;;;;2.53;2.20;;;10.40;99.90;;;;;;6214879;23;20353;-82
2022/06/22 04:00:13;;;;;;;3.00;1.98;;;10.20;99.90;;;;;;6219132;23;20471;-84
2022/06/22 04:02:40;;;;;;;2.67;1.85;;;10.10;99.90;;;;;;6218644;23;20019;-81
2022/06/22 04:05:10;;;;;;;3.53;2.20;;;10.00;99.90;;;;;;6245431;23;20456;-81
2022/06/22 04:07:39;;;;;;;2.60;1.95;;;9.90;99.90;;;;;;6193764;23;20456;-81
2022/06/22 04:10:07;;;;;;;1.95;1.75;;;9.90;99.90;;;;;;6194083;23;20024;-81
2022/06/22 04:12:40;;;;;;;4.18;3.00;;;9.80;99.90;;;;;;6193485;23;20028;-82
2022/06/22 04:15:19;;;;;;;3.70;2.72;;;9.80;99.90;;;;;;6219118;23;20051;-81
2022/06/22 04:18:24;;;;;;;4.32;3.30;;;9.80;99.90;;;;;;6219204;23;20031;-81
2022/06/22 04:21:00;;;;;;;3.40;2.63;;;9.80;99.90;;;;;;6212035;23;20012;-81
2022/06/22 04:23:37;;;;;;;6.68;3.60;;;9.80;99.90;;;;;;6218414;23;20095;-82
2022/06/22 04:26:10;;;;;;;;;;;9.90;99.90;;;;;;6219733;23;20372;-81
2022/06/22 04:28:41;;;;;;;4.68;3.30;;;9.90;99.90;;;;;;6217937;23;19916;-81
2022/06/22 04:31:13;;;;;;;4.18;2.80;;;9.90;99.90;;;;;;6219186;23;20016;-81
2022/06/22 04:33:46;;;;;;;3.70;2.85;;;10.00;99.90;;;;;;6169784;23;20066;-82
2022/06/22 04:36:19;;;;;;;3.38;2.83;;;10.10;99.90;;;;;;6218493;23;20016;-81
2022/06/22 04:38:51;;;;;;;6.15;3.67;;;10.10;99.90;;;;;;6219113;23;20134;-81
2022/06/22 04:41:50;;;;;;;3.47;2.88;;;10.20;99.90;;;;;;6193361;23;20016;-82
2022/06/22 04:44:24;;;;;;;3.60;2.88;;;10.30;99.90;;;;;;6113737;23;20024;-81
2022/06/22 04:46:53;;;;;;;6.05;3.50;;;10.40;99.90;;;;;;6219198;23;20399;-81
2022/06/22 04:49:24;;;;;;;6.90;3.38;;;10.50;99.90;;;;;;6193102;23;20020;-82
2022/06/22 04:51:57;;;;;;;6.07;3.63;;;10.70;99.90;;;;;;6193902;23;20020;-81
2022/06/22 04:54:31;;;;;;;4.90;2.83;;;10.80;99.90;;;;;;6245076;23;20013;-82
2022/06/22 04:57:01;;;;;;;5.75;3.80;;;11.00;99.90;;;;;;6219077;23;20012;-81
2022/06/22 04:59:29;;;;;;;3.80;3.03;;;11.00;99.90;;;;;;6193073;23;20095;-82
2022/06/22 05:01:59;;;;;;;4.25;3.30;;;11.10;99.90;;;;;;6219024;23;20024;-81
2022/06/22 05:04:35;;;;;;;6.45;2.95;;;11.20;99.90;;;;;;6193284;23;20464;-82
2022/06/22 05:07:04;;;;;;;5.18;3.70;;;11.40;99.90;;;;;;6193442;23;20012;-81
2022/06/22 05:09:45;;;;;;;6.22;3.72;;;11.50;99.90;;;;;;6195650;23;20020;-82
2022/06/22 05:12:24;;;;;;;3.83;3.33;;;11.70;99.90;;;;;;6221749;23;20016;-81
2022/06/22 05:14:52;;;;;;;6.82;4.05;;;11.80;99.90;;;;;;6222296;23;20532;-82
2022/06/22 05:17:30;;;;;;;5.78;4.35;;;12.10;99.90;;;;;;6222119;23;20309;-81
2022/06/22 05:20:06;;;;;;;8.98;4.38;;;12.50;99.90;;;;;;6222153;23;20023;-81
2022/06/22 05:22:32;;;;;;;6.97;4.87;;;12.90;99.90;;;;;;6196389;23;20027;-82
2022/06/22 05:25:01;;;;;;;6.60;4.93;;;13.10;99.90;;;;;;6172069;23;20247;-81
2022/06/22 05:27:44;;;;;;;5.68;4.57;;;13.30;99.90;;;;;;6196454;23;20012;-82
2022/06/22 05:30:10;;;;;;;6.45;5.18;;;13.40;99.90;;;;;;6248861;23;20024;-82
2022/06/22 05:32:40;;;;;;;6.78;4.25;;;13.50;99.90;;;;;;6221430;23;20082;-81
2022/06/22 05:35:15;;;;;;;7.43;4.93;;;13.70;99.90;;;;;;6197140;23;20016;-82
2022/06/22 05:37:45;;;;;;;5.57;4.10;;;13.80;99.90;;;;;;6248270;23;20049;-82
2022/06/22 05:40:12;;;;;;;5.25;3.92;;;14.00;99.90;;;;;;6226025;23;20095;-81
2022/06/22 05:42:38;;;;;;;7.10;4.57;;;14.10;99.90;;;;;;6221200;23;20016;-82
2022/06/22 05:45:13;;;;;;;7.47;4.57;;;14.20;99.90;;;;;;6221926;23;20022;-82
2022/06/22 05:47:39;;;;;;;4.78;3.92;;;14.40;99.90;;;;;;6196329;23;20016;-82
2022/06/22 05:50:27;;;;;;;12.20;5.10;;;14.50;99.90;;;;;;6197414;23;20345;-82
2022/06/22 05:53:28;;;;;;;6.53;5.07;;;14.60;99.90;;;;;;6225609;23;20095;-82
2022/06/22 05:56:21;;;;;;;6.22;4.60;;;14.80;99.90;;;;;;6221718;23;20449;-82
2022/06/22 05:59:07;;;;;;;6.93;4.80;;;15.00;99.90;;;;;;6221294;23;20023;-81
2022/06/22 06:01:51;;;;;;;6.40;5.35;;;15.20;99.90;;;;;;6220611;23;20016;-82
2022/06/22 06:04:31;;;;;;;6.03;4.78;;;15.30;99.90;;;;;;6196647;23;20016;-82
2022/06/22 06:07:20;;;;;;;5.03;4.43;;;15.40;99.90;;;;;;6221959;23;20467;-82
2022/06/22 06:09:47;;;;;;;7.28;5.68;;;15.60;99.90;;;;;;6195127;23;20020;-82
2022/06/22 06:12:20;;;;;;;;;;;15.60;99.90;;;;;;6222450;23;20016;-82
2022/06/22 06:14:50;;;;;;;7.78;5.03;;;15.80;99.90;;;;;;6221162;23;20252;-82
2022/06/22 06:17:38;;;;;;;8.93;5.55;;;16.00;99.90;;;;;;6221566;23;20020;-82
2022/06/22 06:20:07;;;;;;;10.35;5.05;;;16.20;99.90;;;;;;6220819;23;20460;-81
2022/06/22 06:22:36;;;;;;;8.15;6.03;;;16.50;99.90;;;;;;6246287;23;20051;-83
2022/06/22 06:28:02;;;;;;;7.75;4.88;;;17.20;99.90;;;;;;6219811;23;20031;-82
2022/06/22 06:30:44;;;;;;;7.00;4.82;;;17.50;99.90;;;;;;6246550;23;20344;-82
2022/06/22 06:33:13;;;;;;;7.05;4.88;;;17.40;99.90;;;;;;6220066;23;20016;-82
2022/06/22 06:35:52;;;;;;;7.72;4.65;;;17.30;99.90;;;;;;6219537;23;20074;-82
2022/06/22 06:38:40;;;;;;;5.60;3.30;;;17.30;99.90;;;;;;6195126;23;20020;-82
2022/06/22 06:41:29;;;;;;;6.40;3.03;;;17.30;99.90;;;;;;6195230;23;20095;-82
2022/06/22 06:44:02;;;;;;;3.50;2.47;;;17.30;99.90;;;;;;6219718;23;20058;-83
2022/06/22 06:46:36;;;;;;;3.03;2.67;;;17.50;99.90;;;;;;6219918;23;20449;-82
2022/06/22 06:49:20;;;;;;;4.43;2.40;;;17.80;99.90;;;;;;6195030;23;20051;-82
2022/06/22 06:52:26;;;;;;;2.88;2.38;;;17.80;99.90;;;;;;6219398;23;20023;-82
2022/06/22 06:55:05;;;;;;;2.63;2.10;;;17.90;99.90;;;;;;6153560;23;20483;-82
2022/06/22 06:57:32;;;;;;;2.35;1.92;;;17.90;99.90;;;;;;6219990;23;20459;-82
2022/06/22 07:00:03;;;;;;;2.20;1.90;;;17.90;99.90;;;;;;6194446;23;20383;-82
2022/06/22 07:02:31;;;;;;;6.18;2.83;;;17.90;99.90;;;;;;6219876;23;20046;-82
2022/06/22 07:05:02;;;;;;;3.25;2.10;;;18.00;99.90;;;;;;6219168;23;20019;-82
2022/06/22 07:07:47;;;;;;;2.17;1.92;;;18.10;99.90;;;;;;6194456;23;20042;-82
2022/06/22 07:10:36;;;;;;;3.20;1.73;;;18.20;99.90;;;;;;6194668;23;20384;-82
2022/06/22 07:13:06;;;;;;;4.90;2.05;;;18.30;99.90;;;;;;6194943;23;20024;-82
2022/06/22 07:15:41;;;;;;;6.97;2.38;;;18.30;99.90;;;;;;6219323;23;20017;-82
2022/06/22 07:18:21;;;;;;;2.30;1.70;;;18.30;99.90;;;;;;6219934;23;20353;-82
2022/06/22 07:20:52;;;;;;;2.63;1.92;;;18.40;99.90;;;;;;6245870;23;20016;-82
2022/06/22 07:23:29;;;;;;;3.60;2.83;;;18.50;99.90;;;;;;6194367;23;20019;-82
2022/06/22 07:26:10;;;;;;;3.85;2.08;;;18.60;99.90;;;;;;6219077;23;20016;-82
2022/06/22 07:28:44;;;;;;;3.80;2.08;;;18.50;99.90;;;;;;6219341;23;20440;-83
2022/06/22 07:31:24;;;;;;;5.35;2.40;;;18.50;99.90;;;;;;6246210;23;20027;-82
2022/06/22 07:33:57;;;;;;;5.28;2.50;;;18.60;99.90;;;;;;6219078;23;20020;-82
2022/06/22 07:36:31;;;;;;;6.40;2.40;;;18.70;99.90;;;;;;6219545;23;20020;-82
2022/06/22 07:39:01;;;;;;;4.43;1.88;;;18.80;99.90;;;;;;6218904;23;20484;-82
2022/06/22 07:41:29;;;;;;;2.00;1.77;;;18.90;99.90;;;;;;6219419;23;20020;-82
2022/06/22 07:44:16;;;;;;;3.03;2.22;;;18.90;99.90;;;;;;6194016;23;20016;-82
2022/06/22 07:47:13;;;;;;;2.47;2.28;;;19.00;99.90;;;;;;6218767;23;20048;-83
2022/06/22 07:49:57;;;;;;;5.65;2.03;;;19.10;99.90;;;;;;6218979;23;20016;-82
2022/06/22 07:52:32;;;;;;;5.65;2.30;;;19.20;99.90;;;;;;6219449;23;20020;-82
2022/06/22 07:55:12;;;;;;;1.85;1.75;;;19.30;99.90;;;;;;6245472;23;20015;-82
2022/06/22 07:57:49;;;;;;;3.35;2.17;;;19.30;99.90;;;;;;6219302;23;20020;-83
2022/06/22 08:00:20;;;;;;;4.70;2.83;;;19.40;99.90;;;;;;6219228;23;20016;-82
2022/06/22 08:02:55;;;;;;;5.22;2.22;;;19.50;99.90;;;;;;6218767;23;20095;-82
2022/06/22 08:05:26;;;;;;;2.50;2.30;;;19.60;99.90;;;;;;6219605;23;20015;-82
2022/06/22 08:08:15;;;;;;;5.43;2.72;;;19.70;99.90;;;;;;6244139;23;20035;-83
2022/06/22 08:11:21;;;;;;;7.35;2.17;;;19.80;99.90;;;;;;6219082;23;20016;-82
2022/06/22 08:13:55;;;;;;;7.53;3.95;;;19.90;99.90;;;;;;6223824;23;20055;-83
2022/06/22 08:16:31;;;;;;;2.88;1.83;;;20.00;99.90;;;;;;6246272;23;20016;-82
2022/06/22 08:18:58;;;;;;;1.90;1.73;;;20.10;99.90;;;;;;6218605;23;20016;-82
2022/06/22 08:21:25;;;;;;;2.97;1.70;;;20.10;99.90;;;;;;6245429;23;20024;-82
2022/06/22 08:23:52;;;;;;;4.18;2.22;;;20.10;99.90;;;;;;6193458;23;20016;-82
2022/06/22 08:26:29;;;;;;;2.08;1.88;;;20.10;99.90;;;;;;6193856;23;20016;-82
2022/06/22 08:28:55;;;;;;;2.13;1.90;;;20.00;99.90;;;;;;6218158;23;20016;-83
2022/06/22 08:31:20;;;;;;;3.40;1.98;;;20.00;99.90;;;;;;6194132;23;20392;-82
2022/06/22 08:33:58;;;;;;;3.03;1.88;;;20.10;99.90;;;;;;6218967;23;20447;-82
2022/06/22 08:36:43;;;;;;;2.75;1.98;;;20.10;99.90;;;;;;6218965;23;20497;-82
2022/06/22 08:39:48;;;;;;;4.53;1.98;;;20.10;99.90;;;;;;6218365;23;20031;-82
2022/06/22 08:42:23;;;;;;;4.18;2.05;;;20.20;99.90;;;;;;6218848;23;20023;-82
2022/06/22 08:45:13;;;;;;;4.45;2.10;;;20.10;99.90;;;;;;6193086;23;20440;-83
2022/06/22 08:47:48;;;;;;;3.95;2.13;;;20.30;99.90;;;;;;6218845;23;20012;-82
2022/06/22 08:50:36;;;;;;;5.25;3.55;;;20.40;99.90;;;;;;6193788;23;20345;-82
2022/06/22 08:53:40;;;;;;;2.58;2.00;;;20.50;99.90;;;;;;6218374;23;20031;-82
2022/06/22 08:56:34;;;;;;;2.95;2.10;;;20.60;99.90;;;;;;6218272;23;20023;-82
2022/06/22 08:59:41;;;;;;;3.63;1.98;;;20.70;99.90;;;;;;6218396;23;20027;-82
2022/06/22 09:02:17;;;;;;;3.45;1.67;;;20.70;99.70;;;;;;6045200;23;20022;-82
2022/06/22 09:05:26;;;;;;;5.68;2.65;;;20.80;99.90;;;;;;6203237;23;20012;-82
2022/06/22 09:08:20;;;;;;;5.47;2.50;;;20.80;99.00;;;;;;6193133;23;20012;-83
2022/06/22 09:11:03;;;;;;;3.78;2.05;;;20.90;97.70;;;;;;6218703;23;20032;-82
2022/06/22 09:13:47;;;;;;;2.83;2.08;;;20.90;98.80;;;;;;6218933;23;20024;-82
2022/06/22 09:16:32;;;;;;;3.67;2.17;;;20.80;98.00;;;;;;6218095;23;20103;-82
2022/06/22 09:19:32;;;;;;;3.05;2.40;;;20.90;97.30;;;;;;6193266;23;20024;-82
2022/06/22 09:22:41;;;;;;;3.13;2.55;;;20.90;98.20;;;;;;6244787;23;20441;-82
2022/06/22 09:25:23;;;;;;;4.75;2.42;;;21.10;97.30;;;;;;6124922;23;20103;-82
2022/06/22 09:28:09;;;;;;;3.10;1.90;;;21.20;97.10;;;;;;6218684;23;20102;-82
2022/06/22 09:30:52;;;;;;;2.65;2.45;;;21.20;96.80;;;;;;6245469;23;20024;-82
2022/06/22 09:33:36;;;;;;;1.65;1.55;;;21.20;96.90;;;;;;6218066;23;20024;-81
2022/06/22 09:36:13;;;;;;;2.58;2.30;;;21.30;97.00;;;;;;6218178;23;20017;-82
2022/06/22 09:39:03;;;;;;;4.85;2.53;;;21.40;97.00;;;;;;6218548;23;20042;-82
2022/06/22 09:41:35;;;;;;;7.25;2.00;;;21.40;96.50;;;;;;6218667;23;20514;-82
2022/06/22 09:44:37;;;;;;;2.45;1.83;;;21.60;96.60;;;;;;6192903;23;20051;-82
2022/06/22 09:47:21;;;;;;;3.97;1.73;;;21.60;96.00;;;;;;6218094;23;20034;-82
2022/06/22 09:50:20;;;;;;;5.53;1.63;;;21.70;96.10;;;;;;6193500;23;20108;-82
2022/06/22 09:53:08;;;;;;;2.15;1.95;;;21.80;95.70;;;;;;6245567;23;20024;-82
2022/06/22 09:56:25;;;;;;;3.67;2.13;;;21.60;95.30;;;;;;6194366;23;20027;-82
2022/06/22 09:59:31;;;;;;;1.67;1.30;;;21.70;95.10;;;;;;6169766;23;20024;-82
2022/06/22 10:02:25;;;;;;;6.15;2.28;;;21.70;95.70;;;;;;6220274;23;20445;-81
2022/06/22 10:04:54;;;;;;;2.40;1.90;;;21.70;95.50;;;;;;6195008;23;20470;-82
2022/06/22 10:07:49;;;;;;;2.83;1.80;;;21.80;95.90;;;;;;6219745;23;20030;-82
2022/06/22 10:10:23;;;;;;;4.63;1.40;;;21.80;95.30;;;;;;6218791;23;20016;-82
2022/06/22 10:13:00;;;;;;;1.88;1.40;;;21.70;95.90;;;;;;6247067;23;20024;-82
2022/06/22 10:15:55;;;;;;;4.63;1.92;;;21.70;96.20;;;;;;6195282;23;20020;-81
2022/06/22 10:18:33;;;;;;;3.25;2.00;;;21.80;95.70;;;;;;6194593;23;20023;-82
2022/06/22 10:21:31;;;;;;;4.15;2.03;;;22.00;96.00;;;;;;6247035;23;20028;-82
2022/06/22 10:23:58;;;;;;;5.10;1.95;;;22.10;95.30;;;;;;6195031;23;20047;-82
2022/06/22 10:26:41;;;;;;;3.05;2.35;;;22.10;95.60;;;;;;6219567;23;20400;-82
2022/06/22 10:29:34;;;;;;;2.38;1.48;;;22.20;95.60;;;;;;6246261;23;20024;-82
2022/06/22 10:32:10;;;;;;;2.75;1.70;;;22.10;95.70;;;;;;6220068;23;20024;-82
2022/06/22 10:35:00;;;;;;;2.40;2.23;;;22.10;95.60;;;;;;6195017;23;20024;-82
2022/06/22 10:37:37;;;;;;;3.38;1.88;;;22.20;95.70;;;;;;6219528;23;20258;-82
2022/06/22 10:46:18;;;;;;;2.85;1.85;;;22.30;95.70;;;;;;6219568;23;20021;-82
2022/06/22 10:49:11;;;;;;;4.50;1.95;;;22.20;95.70;;;;;;6220057;23;20436;-82
2022/06/22 10:51:45;;;;;;;8.13;2.35;;;22.20;95.20;;;;;;6220245;23;20095;-82
2022/06/22 10:54:55;;;;;;;4.43;1.73;;;22.20;96.00;;;;;;6219043;23;20020;-82
2022/06/22 10:58:07;;;;;;;4.93;1.88;;;22.30;96.70;;;;;;6162712;23;20340;-82
2022/06/22 11:00:47;;;;;;;1.92;1.70;;;22.30;96.30;;;;;;6200664;23;20148;-82
2022/06/22 11:03:45;;;;;;;2.28;1.48;;;22.40;96.10;;;;;;6245667;23;20518;-82
2022/06/22 11:06:41;;;;;;;3.25;1.80;;;22.50;95.80;;;;;;6218828;23;20020;-82
2022/06/22 11:09:07;;;;;;;1.63;1.48;;;22.50;94.90;;;;;;6194269;23;20322;-83
2022/06/22 11:11:50;;;;;;;3.17;2.83;;;22.50;95.00;;;;;;6219719;23;20027;-82
2022/06/22 11:14:23;;;;;;;1.80;1.70;;;22.60;94.90;;;;;;6219390;23;20027;-81
2022/06/22 11:17:20;;;;;;;3.55;1.58;;;22.70;94.60;;;;;;6219222;23;20027;-83
2022/06/22 11:20:04;;;;;;;3.10;1.67;;;22.70;94.00;;;;;;6219837;23;20026;-82
2022/06/22 11:22:41;;;;;;;3.25;2.05;;;22.80;94.70;;;;;;6219001;23;20023;-82
2022/06/22 11:31:26;;;;;;;3.25;1.92;;;23.00;93.50;;;;;;6218816;23;20487;-82
2022/06/22 11:34:24;;;;;;;2.75;1.83;;;23.20;93.30;;;;;;6219625;23;20023;-82
2022/06/22 11:36:53;;;;;;;;;;;23.20;93.80;;;;;;6114216;23;20024;-82
2022/06/22 11:39:39;;;;;;;4.68;1.50;;;23.20;92.60;;;;;;6218890;23;20386;-82
2022/06/22 11:42:23;;;;;;;2.33;2.13;;;23.30;93.20;;;;;;6244802;23;20103;-81
2022/06/22 11:48:01;;;;;;;4.18;2.17;;;23.40;93.10;;;;;;6219319;23;20027;-82
2022/06/22 11:50:53;;;;;;;2.30;1.77;;;23.50;92.90;;;;;;6245705;23;20022;-82
2022/06/22 11:53:27;;;;;;;2.17;1.75;;;23.60;92.90;;;;;;6218806;23;20020;-81
2022/06/22 11:56:03;;;;;;;2.55;1.58;;;23.70;92.60;;;;;;6219583;23;20340;-81
2022/06/22 11:58:47;;;;;;;2.70;1.50;;;23.70;92.40;;;;;;6218777;23;20019;-81
2022/06/22 12:01:47;;;;;;;3.53;1.98;;;23.80;92.40;;;;;;6246093;23;20275;-82
2022/06/22 12:04:42;;;;;;;2.45;2.00;;;23.80;92.20;;;;;;6219353;23;20071;-82
2022/06/22 12:07:32;;;;;;;2.38;2.17;;;23.80;92.20;;;;;;6245981;23;20020;-82
2022/06/22 12:10:27;;;;;;;1.90;1.70;;;23.90;91.80;;;;;;6219226;23;20345;-81
2022/06/22 12:13:23;;;;;;;2.63;2.33;;;24.00;91.90;;;;;;6246250;23;20016;-82
2022/06/22 12:16:23;;;;;;;5.07;1.40;;;24.00;92.20;;;;;;6219221;23;20020;-81
2022/06/22 12:19:20;;;;;;;2.50;1.83;;;24.10;91.50;;;;;;6218849;23;20020;-82
2022/06/22 12:21:49;;;;;;;3.03;1.77;;;24.10;91.30;;;;;;6245835;23;20023;-82
2022/06/22 12:24:28;;;;;;;2.35;1.67;;;24.10;91.20;;;;;;6218929;23;20113;-81
2022/06/22 12:27:06;;;;;;;2.22;1.60;;;24.10;90.80;;;;;;6219160;23;20020;-82
2022/06/22 12:29:47;;;;;;;2.53;1.88;;;24.20;90.60;;;;;;6218208;23;20075;-82
2022/06/22 12:32:38;;;;;;;4.70;2.78;;;24.20;90.90;;;;;;6194013;23;20445;-81
2022/06/22 12:35:36;;;;;;;3.45;2.55;;;24.30;91.10;;;;;;6219168;23;20463;-82
2022/06/22 12:38:24;;;;;;;2.85;1.73;;;24.40;91.90;;;;;;6245934;23;20075;-81
2022/06/22 12:41:02;;;;;;;2.70;1.60;;;24.50;91.20;;;;;;6218822;23;20016;-82
2022/06/22 12:43:57;;;;;;;2.60;1.75;;;24.60;90.90;;;;;;6218186;23;20441;-82
2022/06/22 12:47:17;;;;;;;4.50;2.10;;;24.60;90.90;;;;;;6204855;23;20095;-83
2022/06/22 12:49:54;;;;;;;4.03;1.70;;;24.60;91.00;;;;;;6093488;23;20026;-82
2022/06/22 12:52:28;;;;;;;2.75;1.95;;;24.70;90.70;;;;;;6218483;23;20437;-88
2022/06/22 12:55:05;;;;;;;3.50;1.95;;;24.70;89.20;;;;;;6219011;23;20460;-82
2022/06/22 12:57:40;;;;;;;2.70;2.30;;;24.70;89.80;;;;;;6218347;23;20051;-82
2022/06/22 13:00:19;;;;;;;3.10;2.30;;;24.70;88.60;;;;;;6218810;23;20453;-82
2022/06/22 13:02:46;;;;;;;5.57;2.35;;;24.80;88.60;;;;;;6245075;23;20055;-82
2022/06/22 13:05:23;;;;;;;4.07;1.60;;;24.70;88.10;;;;;;6193517;23;20020;-82
2022/06/22 13:07:54;;;;;;;10.00;2.60;;;24.80;89.70;;;;;;6245494;23;20020;-82
2022/06/22 13:10:24;;;;;;;2.65;2.33;;;24.90;89.50;;;;;;6218776;23;20445;-82
2022/06/22 13:12:55;;;;;;;5.68;2.17;;;24.90;89.60;;;;;;6218298;23;20020;-82
2022/06/22 13:15:35;;;;;;;2.95;2.25;;;24.90;90.20;;;;;;6218741;23;20448;-82
2022/06/22 13:18:07;;;;;;;2.72;2.03;;;25.00;90.00;;;;;;6218998;23;20016;-82
2022/06/22 13:20:52;;;;;;;4.00;2.30;;;25.00;90.00;;;;;;6244742;23;20471;-82
2022/06/22 13:23:47;;;;;;;4.38;1.92;;;25.00;88.90;;;;;;6218633;23;20016;-82
2022/06/22 13:26:35;;;;;;;9.20;2.38;;;25.00;88.30;;;;;;6218553;23;20016;-82
2022/06/22 13:29:21;;;;;;;3.10;2.15;;;25.00;89.40;;;;;;6218620;23;20372;-82
2022/06/22 13:31:51;;;;;;;5.13;2.10;;;25.10;89.20;;;;;;6220114;23;20016;-82
2022/06/22 13:34:26;;;;;;;6.07;1.90;;;25.10;89.30;;;;;;6247463;23;20012;-82
2022/06/22 13:37:09;;;;;;;2.58;1.65;;;25.20;88.40;;;;;;6247733;23;20020;-82
2022/06/22 13:39:56;;;;;;;5.38;2.08;;;25.10;86.90;;;;;;6246966;23;20313;-82
2022/06/22 13:42:30;;;;;;;;;;;25.20;86.80;;;;;;6196101;23;20016;-82
2022/06/22 13:44:56;;;;;;;4.57;1.98;;;25.10;83.90;;;;;;6220508;23;19919;-82
2022/06/22 13:47:44;;;;;;;3.92;1.63;;;25.20;87.10;;;;;;6220671;23;20023;-82
2022/06/22 13:50:27;;;;;;;3.03;1.77;;;25.10;86.10;;;;;;6220802;23;20024;-82
2022/06/22 13:52:55;;;;;;;1.90;1.80;;;25.20;87.30;;;;;;6220718;23;20345;-82
2022/06/22 13:55:42;;;;;;;2.60;1.80;;;25.20;87.20;;;;;;6220443;23;20012;-82
2022/06/22 13:58:20;;;;;;;1.52;1.30;;;25.30;87.40;;;;;;6220499;23;20095;-82
2022/06/22 14:01:00;;;;;;;1.98;1.75;;;25.30;87.10;;;;;;6219977;23;20357;-82
2022/06/22 14:03:48;;;;;;;2.65;1.73;;;25.30;87.50;;;;;;6247183;23;20024;-82
2022/06/22 14:06:37;;;;;;;5.13;3.28;;;25.30;86.40;;;;;;6220408;23;20057;-82
2022/06/22 14:09:14;;;;;;;3.78;2.08;;;25.20;86.10;;;;;;6245797;23;20022;-82
2022/06/22 14:11:58;;;;;;;4.88;1.70;;;25.40;86.90;;;;;;6219892;23;20333;-82
2022/06/22 14:14:51;;;;;;;6.85;1.95;;;25.40;85.20;;;;;;6220521;23;20019;-82
2022/06/22 14:17:41;;;;;;;4.95;2.13;;;25.40;86.70;;;;;;6247109;23;20028;-82
2022/06/22 14:20:43;;;;;;;3.13;2.10;;;25.40;86.90;;;;;;6195304;23;20336;-82